createdAt,value
2018-12-26T00:02:13.484Z,102393.64
2018-12-26T00:04:47.598Z,102394.98
2018-12-26T00:07:25.819Z,102389.31
2018-12-26T00:09:58.771Z,102387.98
2018-12-26T00:12:31.033Z,102399.31
2018-12-26T00:15:00.902Z,102388.78
2018-12-26T00:17:30.725Z,102392.16
2018-12-26T00:20:00.492Z,102387.29
2018-12-26T00:22:30.185Z,102389.52
2018-12-26T00:24:59.862Z,102382.36
2018-12-26T00:27:29.557Z,102382.98
2018-12-26T00:29:59.325Z,102380.64
2018-12-26T00:32:29.020Z,102384.72
2018-12-26T00:34:58.743Z,102375.98
2018-12-26T00:37:28.505Z,102357.77
2018-12-26T00:39:58.228Z,102364.98
2018-12-26T00:42:27.974Z,102375.59
2018-12-26T00:44:57.639Z,102369.52
2018-12-26T00:47:27.344Z,102374.98
2018-12-26T00:49:57.096Z,102383.70
2018-12-26T00:52:26.807Z,102378.80
2018-12-26T00:54:56.573Z,102373.78
2018-12-26T00:57:26.334Z,102374.58
2018-12-26T00:59:56.113Z,102376.63
2018-12-26T01:02:25.855Z,102378.50
2018-12-26T01:04:55.543Z,102372.69
2018-12-26T01:07:25.321Z,102374.02
2018-12-26T01:09:55.164Z,102364.37
2018-12-26T01:12:25.099Z,102371.20
2018-12-26T01:14:58.291Z,102381.73
2018-12-26T01:17:28.434Z,102382.91
2018-12-26T01:19:58.269Z,102369.17
2018-12-26T01:22:28.018Z,102370.35
2018-12-26T01:24:57.750Z,102375.07
2018-12-26T01:27:27.595Z,102364.14
2018-12-26T01:29:57.359Z,102358.08
2018-12-26T01:32:27.132Z,102367.42
2018-12-26T01:34:56.914Z,102370.11
2018-12-26T01:37:26.731Z,102373.58
2018-12-26T01:39:56.558Z,102376.27
2018-12-26T01:42:26.340Z,102389.09
2018-12-26T01:44:56.493Z,102382.89
2018-12-26T01:47:26.341Z,102377.58
2018-12-26T01:49:56.096Z,102368.10
2018-12-26T01:52:25.765Z,102360.41
2018-12-26T01:54:55.560Z,102353.40
2018-12-26T01:57:25.360Z,102358.42
2018-12-26T01:59:55.228Z,102358.13
2018-12-26T02:02:25.100Z,102352.13
2018-12-26T02:04:55.084Z,102350.80
2018-12-26T02:07:24.825Z,102360.52
2018-12-26T02:09:54.681Z,102359.50
2018-12-26T02:12:24.360Z,102364.86
2018-12-26T02:14:54.197Z,102363.31
2018-12-26T02:17:24.062Z,102357.86
2018-12-26T02:19:53.903Z,102354.83
2018-12-26T02:22:23.610Z,102354.50
2018-12-26T02:24:53.313Z,102353.97
2018-12-26T02:27:23.086Z,102350.66
2018-12-26T02:29:52.764Z,102349.32
2018-12-26T02:32:22.569Z,102353.47
2018-12-26T02:34:52.314Z,102351.13
2018-12-26T02:37:22.067Z,102347.19
2018-12-26T02:39:51.770Z,102335.99
2018-12-26T02:42:21.546Z,102339.34
2018-12-26T02:44:51.297Z,102335.67
2018-12-26T02:47:21.069Z,102332.04
2018-12-26T02:49:50.872Z,102327.19
2018-12-26T02:52:20.589Z,102322.85
2018-12-26T02:54:50.429Z,102332.19
2018-12-26T02:57:20.192Z,102312.67
2018-12-26T02:59:50.031Z,102318.70
2018-12-26T03:02:19.805Z,102317.15
2018-12-26T03:04:49.628Z,102316.34
2018-12-26T03:07:19.335Z,102326.30
2018-12-26T03:09:49.078Z,102328.15
2018-12-26T03:12:18.936Z,102328.69
2018-12-26T03:14:48.780Z,102330.01
2018-12-26T03:17:18.551Z,102324.84
2018-12-26T03:19:48.368Z,102330.33
2018-12-26T03:22:18.278Z,102327.98
2018-12-26T03:24:48.012Z,102323.44
2018-12-26T03:27:17.763Z,102322.14
2018-12-26T03:29:47.597Z,102310.80
2018-12-26T03:32:17.455Z,102309.13
2018-12-26T03:34:47.258Z,102295.95
2018-12-26T03:37:17.319Z,102302.61
2018-12-26T03:39:47.177Z,102282.83
2018-12-26T03:42:16.941Z,102278.14
2018-12-26T03:44:47.518Z,102266.83
2018-12-26T03:47:17.881Z,102261.41
2018-12-26T03:49:47.730Z,102258.66
2018-12-26T03:52:18.177Z,102270.13
2018-12-26T03:54:48.222Z,102266.98
2018-12-26T03:57:18.092Z,102267.77
2018-12-26T03:59:48.046Z,102252.45
2018-12-26T04:02:17.913Z,102266.81
2018-12-26T04:04:47.823Z,102252.16
2018-12-26T04:07:17.585Z,102252.09
2018-12-26T04:09:47.383Z,102247.94
2018-12-26T04:12:17.212Z,102253.80
2018-12-26T04:14:47.077Z,102250.59
2018-12-26T04:17:16.965Z,102252.61
2018-12-26T04:19:46.717Z,102244.59
2018-12-26T04:22:16.449Z,102247.28
2018-12-26T04:24:48.033Z,102250.41
2018-12-26T04:27:18.199Z,102264.48
2018-12-26T04:29:47.976Z,102266.30
2018-12-26T04:32:17.773Z,102267.95
2018-12-26T04:34:47.534Z,102256.30
2018-12-26T04:37:17.306Z,102265.19
2018-12-26T04:39:47.150Z,102260.31
2018-12-26T04:42:17.163Z,102252.48
2018-12-26T04:44:46.912Z,102254.75
2018-12-26T04:47:16.712Z,102269.48
2018-12-26T04:49:46.459Z,102273.66
2018-12-26T04:52:16.335Z,102264.72
2018-12-26T04:54:46.082Z,102271.66
2018-12-26T04:57:24.481Z,102263.34
2018-12-26T04:59:47.178Z,102262.45
2018-12-26T05:02:17.013Z,102258.75
2018-12-26T05:04:46.810Z,102251.34
2018-12-26T05:07:16.595Z,102250.39
2018-12-26T05:09:46.373Z,102258.43
2018-12-26T05:12:16.143Z,102252.08
2018-12-26T05:14:45.949Z,102249.56
2018-12-26T05:17:15.723Z,102251.38
2018-12-26T05:19:45.590Z,102250.34
2018-12-26T05:22:15.358Z,102259.92
2018-12-26T05:24:45.202Z,102255.94
2018-12-26T05:27:14.970Z,102262.05
2018-12-26T05:29:44.751Z,102262.88
2018-12-26T05:32:14.538Z,102267.33
2018-12-26T05:34:44.216Z,102266.59
2018-12-26T05:37:14.017Z,102268.05
2018-12-26T05:39:43.735Z,102275.91
2018-12-26T05:42:13.505Z,102275.77
2018-12-26T05:44:43.256Z,102274.43
2018-12-26T05:47:13.041Z,102266.58
2018-12-26T05:49:42.883Z,102275.38
2018-12-26T05:52:12.724Z,102273.73
2018-12-26T05:54:42.437Z,102269.89
2018-12-26T05:57:12.246Z,102272.39
2018-12-26T05:59:42.014Z,102269.38
2018-12-26T06:02:11.804Z,102286.92
2018-12-26T06:04:41.579Z,102282.20
2018-12-26T06:07:11.276Z,102283.05
2018-12-26T06:09:40.985Z,102287.36
2018-12-26T06:12:11.549Z,102285.51
2018-12-26T06:14:41.434Z,102289.52
2018-12-26T06:17:11.218Z,102284.53
2018-12-26T06:19:40.953Z,102290.73
2018-12-26T06:22:10.645Z,102294.39
2018-12-26T06:24:40.387Z,102297.56
2018-12-26T06:27:10.131Z,102291.23
2018-12-26T06:29:39.860Z,102288.90
2018-12-26T06:32:09.543Z,102281.05
2018-12-26T06:34:39.260Z,102280.86
2018-12-26T06:37:09.147Z,102277.25
2018-12-26T06:39:38.837Z,102276.93
2018-12-26T06:42:08.591Z,102276.09
2018-12-26T06:44:38.366Z,102263.36
2018-12-26T06:47:08.101Z,102276.72
2018-12-26T06:49:38.000Z,102286.05
2018-12-26T06:52:07.741Z,102291.94
2018-12-26T06:54:37.525Z,102287.55
2018-12-26T06:57:07.268Z,102298.50
2018-12-26T06:59:36.987Z,102292.72
2018-12-26T07:02:06.848Z,102290.89
2018-12-26T07:04:36.807Z,102295.54
2018-12-26T07:07:06.525Z,102297.41
2018-12-26T07:09:36.285Z,102296.55
2018-12-26T07:12:06.069Z,102299.56
2018-12-26T07:14:35.939Z,102298.83
2018-12-26T07:17:05.607Z,102304.55
2018-12-26T07:19:35.524Z,102311.08
2018-12-26T07:22:05.380Z,102306.05
2018-12-26T07:24:35.222Z,102307.08
2018-12-26T07:27:04.999Z,102305.97
2018-12-26T07:29:34.911Z,102316.00
2018-12-26T07:32:04.686Z,102311.84
2018-12-26T07:34:41.996Z,102307.66
2018-12-26T07:37:05.770Z,102313.48
2018-12-26T07:39:35.572Z,102313.48
2018-12-26T07:42:05.306Z,102318.14
2018-12-26T07:44:35.096Z,102323.30
2018-12-26T07:47:04.793Z,102329.67
2018-12-26T07:49:34.531Z,102329.52
2018-12-26T07:52:04.278Z,102332.31
2018-12-26T07:54:34.009Z,102335.66
2018-12-26T07:57:03.794Z,102317.98
2018-12-26T07:59:37.551Z,102320.66
2018-12-26T08:02:05.817Z,102318.27
2018-12-26T08:04:35.658Z,102329.70
2018-12-26T08:07:05.476Z,102317.80
2018-12-26T08:09:35.364Z,102329.04
2018-12-26T08:12:05.140Z,102318.70
2018-12-26T08:14:35.097Z,102315.02
2018-12-26T08:17:05.350Z,102317.19
2018-12-26T08:19:35.486Z,102312.63
2018-12-26T08:22:05.600Z,102315.23
2018-12-26T08:24:35.834Z,102312.70
2018-12-26T08:27:07.866Z,102312.16
2018-12-26T08:29:39.390Z,102313.48
2018-12-26T08:32:10.623Z,102301.00
2018-12-26T08:34:40.699Z,102292.13
2018-12-26T08:37:10.940Z,102289.95
2018-12-26T08:39:41.138Z,102290.63
2018-12-26T08:42:11.074Z,102294.31
2018-12-26T08:44:41.341Z,102302.62
2018-12-26T08:47:11.204Z,102296.61
2018-12-26T08:49:40.932Z,102300.30
2018-12-26T08:52:10.682Z,102305.94
2018-12-26T08:54:40.416Z,102304.95
2018-12-26T08:57:10.130Z,102309.86
2018-12-26T08:59:39.918Z,102316.91
2018-12-26T09:02:09.664Z,102315.12
2018-12-26T09:04:39.427Z,102314.56
2018-12-26T09:07:09.220Z,102312.73
2018-12-26T09:09:38.941Z,102308.37
2018-12-26T09:12:08.665Z,102309.38
2018-12-26T09:14:41.271Z,102312.52
2018-12-26T09:17:10.995Z,102310.02
2018-12-26T09:19:40.661Z,102310.08
2018-12-26T09:22:10.473Z,102313.38
2018-12-26T09:24:40.210Z,102314.67
2018-12-26T09:27:12.690Z,102314.84
2018-12-26T09:29:42.433Z,102325.55
2018-12-26T09:32:12.938Z,102322.86
2018-12-26T09:34:42.706Z,102331.81
2018-12-26T09:37:12.483Z,102326.30
2018-12-26T09:39:42.297Z,102332.56
2018-12-26T09:42:12.135Z,102330.44
2018-12-26T09:44:41.926Z,102322.81
2018-12-26T09:47:11.717Z,102324.80
2018-12-26T09:49:41.532Z,102323.18
2018-12-26T09:52:11.303Z,102328.31
2018-12-26T09:54:41.073Z,102326.62
2018-12-26T09:57:11.681Z,102326.77
2018-12-26T09:59:42.275Z,102327.62
2018-12-26T10:02:12.060Z,102329.42
2018-12-26T10:04:41.758Z,102328.41
2018-12-26T10:07:11.531Z,102322.55
2018-12-26T10:09:41.493Z,102329.70
2018-12-26T10:12:11.159Z,102316.34
2018-12-26T10:14:40.870Z,102323.64
2018-12-26T10:17:15.558Z,102324.67
2018-12-26T10:19:45.446Z,102317.87
2018-12-26T10:22:15.160Z,102315.19
2018-12-26T10:24:44.858Z,102310.81
2018-12-26T10:27:14.729Z,102313.39
2018-12-26T10:29:44.442Z,102312.17
2018-12-26T10:32:14.207Z,102314.84
2018-12-26T10:34:43.952Z,102319.81
2018-12-26T10:37:13.658Z,102311.68
2018-12-26T10:39:43.487Z,102308.25
2018-12-26T10:42:13.216Z,102305.84
2018-12-26T10:44:43.068Z,102315.02
2018-12-26T10:47:12.856Z,102319.15
2018-12-26T10:49:42.642Z,102314.41
2018-12-26T10:52:12.438Z,102319.76
2018-12-26T10:54:42.153Z,102304.21
2018-12-26T10:57:11.856Z,102315.58
2018-12-26T10:59:41.655Z,102307.06
2018-12-26T11:02:11.522Z,102312.98
2018-12-26T11:04:41.346Z,102308.09
2018-12-26T11:07:11.079Z,102313.77
2018-12-26T11:09:40.877Z,102311.83
2018-12-26T11:12:10.698Z,102311.06
2018-12-26T11:14:40.408Z,102308.20
2018-12-26T11:17:10.284Z,102323.59
2018-12-26T11:19:40.100Z,102321.93
2018-12-26T11:22:09.959Z,102319.81
2018-12-26T11:24:39.857Z,102316.33
2018-12-26T11:27:09.747Z,102318.97
2018-12-26T11:29:39.617Z,102313.91
2018-12-26T11:32:09.495Z,102312.57
2018-12-26T11:34:39.183Z,102308.53
2018-12-26T11:37:08.944Z,102304.23
2018-12-26T11:39:38.734Z,102309.02
2018-12-26T11:42:08.504Z,102301.70
2018-12-26T11:44:38.256Z,102300.82
2018-12-26T11:47:08.053Z,102306.03
2018-12-26T11:49:37.744Z,102300.12
2018-12-26T11:52:07.500Z,102301.84
2018-12-26T11:54:37.291Z,102306.48
2018-12-26T11:57:07.092Z,102303.75
2018-12-26T11:59:37.100Z,102309.48
2018-12-26T12:02:06.862Z,102304.73
2018-12-26T12:04:36.730Z,102299.23
2018-12-26T12:07:06.537Z,102299.38
2018-12-26T12:09:36.295Z,102300.50
2018-12-26T12:12:06.169Z,102294.13
2018-12-26T12:14:35.886Z,102298.64
2018-12-26T12:17:05.689Z,102302.44
2018-12-26T12:19:35.446Z,102304.63
2018-12-26T12:22:05.267Z,102305.67
2018-12-26T12:24:36.742Z,102314.48
2018-12-26T12:27:06.997Z,102299.30
2018-12-26T12:29:36.858Z,102305.05
2018-12-26T12:32:06.714Z,102310.47
2018-12-26T12:34:36.428Z,102309.52
2018-12-26T12:37:05.952Z,102307.97
2018-12-26T12:39:35.720Z,102300.86
2018-12-26T12:42:05.523Z,102310.50
2018-12-26T12:44:35.354Z,102308.24
2018-12-26T12:47:05.230Z,102304.91
2018-12-26T12:49:37.150Z,102305.50
2018-12-26T12:52:06.728Z,102299.52
2018-12-26T12:54:36.495Z,102305.43
2018-12-26T12:57:06.307Z,102310.30
2018-12-26T12:59:44.577Z,102312.01
2018-12-26T13:02:07.627Z,102307.68
2018-12-26T13:04:37.387Z,102311.06
2018-12-26T13:07:07.105Z,102316.55
2018-12-26T13:09:36.825Z,102315.10
2018-12-26T13:12:06.759Z,102322.40
2018-12-26T13:14:36.575Z,102319.23
2018-12-26T13:17:06.354Z,102328.30
2018-12-26T13:19:36.194Z,102319.61
2018-12-26T13:22:05.989Z,102332.73
2018-12-26T13:24:36.142Z,102336.89
2018-12-26T13:27:06.133Z,102335.06
2018-12-26T13:29:35.841Z,102338.66
2018-12-26T13:32:05.791Z,102343.27
2018-12-26T13:34:35.556Z,102345.66
2018-12-26T13:37:05.406Z,102341.57
2018-12-26T13:39:35.130Z,102339.23
2018-12-26T13:42:04.964Z,102343.11
2018-12-26T13:44:35.120Z,102346.63
2018-12-26T13:47:05.057Z,102341.64
2018-12-26T13:49:34.841Z,102338.42
2018-12-26T13:52:04.754Z,102342.93
2018-12-26T13:54:34.601Z,102338.82
2018-12-26T13:57:04.336Z,102341.75
2018-12-26T13:59:34.076Z,102339.44
2018-12-26T14:02:03.952Z,102342.52
2018-12-26T14:04:33.809Z,102336.49
2018-12-26T14:07:03.542Z,102345.30
2018-12-26T14:09:33.467Z,102342.75
2018-12-26T14:12:03.280Z,102341.91
2018-12-26T14:14:33.040Z,102342.70
2018-12-26T14:17:02.787Z,102339.72
2018-12-26T14:19:32.739Z,102342.34
2018-12-26T14:22:04.222Z,102346.22
2018-12-26T14:24:34.130Z,102340.25
2018-12-26T14:27:03.891Z,102339.09
2018-12-26T14:29:33.739Z,102341.33
2018-12-26T14:32:03.545Z,102340.34
2018-12-26T14:34:33.340Z,102336.38
2018-12-26T14:37:03.048Z,102340.03
2018-12-26T14:39:32.870Z,102335.74
2018-12-26T14:42:02.667Z,102338.33
2018-12-26T14:44:32.451Z,102335.61
2018-12-26T14:47:02.220Z,102337.22
2018-12-26T14:49:32.042Z,102333.38
2018-12-26T14:52:01.806Z,102337.62
2018-12-26T14:54:31.526Z,102333.83
2018-12-26T14:57:01.261Z,102329.64
2018-12-26T14:59:30.959Z,102338.39
2018-12-26T15:02:00.715Z,102341.12
2018-12-26T15:04:30.401Z,102333.84
2018-12-26T15:07:00.197Z,102332.49
2018-12-26T15:09:30.000Z,102329.19
2018-12-26T15:11:59.745Z,102330.88
2018-12-26T15:14:29.490Z,102332.81
2018-12-26T15:16:59.214Z,102326.91
2018-12-26T15:19:29.102Z,102331.30
2018-12-26T15:21:58.784Z,102333.20
2018-12-26T15:24:28.540Z,102333.95
2018-12-26T15:26:58.346Z,102336.41
2018-12-26T15:29:28.139Z,102335.97
2018-12-26T15:31:57.955Z,102332.31
2018-12-26T15:34:27.746Z,102347.14
2018-12-26T15:36:57.546Z,102341.95
2018-12-26T15:39:27.380Z,102339.78
2018-12-26T15:41:57.180Z,102343.16
2018-12-26T15:44:26.863Z,102336.73
2018-12-26T15:46:56.707Z,102337.53
2018-12-26T15:49:26.393Z,102333.08
2018-12-26T15:51:56.279Z,102332.72
2018-12-26T15:54:26.205Z,102328.97
2018-12-26T15:56:56.001Z,102333.34
2018-12-26T15:59:25.810Z,102334.15
2018-12-26T16:01:55.603Z,102330.58
2018-12-26T16:04:25.532Z,102328.74
2018-12-26T16:06:55.278Z,102331.97
2018-12-26T16:09:25.099Z,102325.94
2018-12-26T16:11:55.004Z,102331.42
2018-12-26T16:14:24.840Z,102330.66
2018-12-26T16:16:54.614Z,102325.39
2018-12-26T16:19:24.455Z,102328.39
2018-12-26T16:21:54.285Z,102318.84
2018-12-26T16:24:24.118Z,102321.52
2018-12-26T16:26:53.950Z,102323.48
2018-12-26T16:29:23.664Z,102321.47
2018-12-26T16:31:53.475Z,102321.69
2018-12-26T16:34:23.279Z,102323.44
2018-12-26T16:36:53.114Z,102320.00
2018-12-26T16:39:22.954Z,102319.33
2018-12-26T16:41:52.713Z,102319.19
2018-12-26T16:44:22.520Z,102320.53
2018-12-26T16:46:52.281Z,102312.50
2018-12-26T16:49:22.167Z,102311.80
2018-12-26T16:51:51.977Z,102305.04
2018-12-26T16:54:21.727Z,102309.87
2018-12-26T16:56:53.357Z,102314.36
2018-12-26T16:59:23.266Z,102321.11
2018-12-26T17:01:53.053Z,102314.59
2018-12-26T17:04:22.891Z,102319.38
2018-12-26T17:06:52.641Z,102322.49
2018-12-26T17:09:22.402Z,102316.73
2018-12-26T17:11:52.220Z,102314.86
2018-12-26T17:14:22.028Z,102316.02
2018-12-26T17:16:51.870Z,102317.54
2018-12-26T17:19:21.595Z,102317.95
2018-12-26T17:21:51.391Z,102325.76
2018-12-26T17:24:21.286Z,102323.08
2018-12-26T17:26:50.973Z,102318.92
2018-12-26T17:29:20.670Z,102321.61
2018-12-26T17:31:50.459Z,102317.89
2018-12-26T17:34:20.150Z,102321.78
2018-12-26T17:36:49.862Z,102325.17
2018-12-26T17:39:19.704Z,102330.52
2018-12-26T17:41:50.892Z,102330.70
2018-12-26T17:44:20.636Z,102327.30
2018-12-26T17:46:50.370Z,102338.14
2018-12-26T17:49:20.142Z,102338.82
2018-12-26T17:51:49.843Z,102336.62
2018-12-26T17:54:57.008Z,102337.75
2018-12-26T17:57:37.663Z,102337.30
2018-12-26T18:00:39.222Z,102337.55
2018-12-26T18:03:08.955Z,102336.22
2018-12-26T18:05:38.711Z,102334.03
2018-12-26T18:08:08.431Z,102337.22
2018-12-26T18:10:38.261Z,102333.89
2018-12-26T18:13:08.059Z,102344.52
2018-12-26T18:15:37.814Z,102341.41
2018-12-26T18:18:07.665Z,102339.88
2018-12-26T18:20:37.409Z,102344.55
2018-12-26T18:23:07.215Z,102340.69
2018-12-26T18:25:36.909Z,102342.36
2018-12-26T18:28:06.627Z,102345.84
2018-12-26T18:30:36.402Z,102348.33
2018-12-26T18:33:06.212Z,102350.06
2018-12-26T18:35:35.929Z,102357.44
2018-12-26T18:38:05.638Z,102356.16
2018-12-26T18:40:35.421Z,102347.50
2018-12-26T18:43:05.180Z,102351.16
2018-12-26T18:45:34.962Z,102352.08
2018-12-26T18:48:04.719Z,102345.74
2018-12-26T18:50:34.513Z,102346.44
2018-12-26T18:53:04.202Z,102349.80
2018-12-26T18:55:33.993Z,102352.16
2018-12-26T18:58:03.791Z,102345.09
2018-12-26T19:00:33.472Z,102348.38
2018-12-26T19:03:03.201Z,102350.64
2018-12-26T19:05:32.974Z,102354.19
2018-12-26T19:08:02.759Z,102350.00
2018-12-26T19:10:32.502Z,102350.00
2018-12-26T19:13:02.303Z,102352.89
2018-12-26T19:15:32.071Z,102344.02
2018-12-26T19:18:01.851Z,102346.02
2018-12-26T19:20:31.667Z,102338.87
2018-12-26T19:23:01.441Z,102339.37
2018-12-26T19:25:31.264Z,102340.70
2018-12-26T19:28:01.087Z,102344.58
2018-12-26T19:30:30.863Z,102339.79
2018-12-26T19:33:00.655Z,102333.24
2018-12-26T19:35:30.815Z,102334.94
2018-12-26T19:38:00.678Z,102326.23
2018-12-26T19:40:30.555Z,102331.63
2018-12-26T19:43:00.287Z,102333.59
2018-12-26T19:45:30.034Z,102331.70
2018-12-26T19:47:59.711Z,102327.69
2018-12-26T19:50:29.446Z,102329.80
2018-12-26T19:52:59.196Z,102329.80
2018-12-26T19:55:28.871Z,102325.92
2018-12-26T19:57:58.673Z,102330.60
2018-12-26T20:00:28.354Z,102328.20
2018-12-26T20:02:58.061Z,102327.02
2018-12-26T20:05:27.849Z,102322.42
2018-12-26T20:07:57.556Z,102320.17
2018-12-26T20:10:27.364Z,102323.55
2018-12-26T20:12:57.167Z,102324.76
2018-12-26T20:15:26.964Z,102317.50
2018-12-26T20:17:56.707Z,102315.48
2018-12-26T20:20:26.448Z,102318.44
2018-12-26T20:22:56.209Z,102312.25
2018-12-26T20:25:25.949Z,102313.77
2018-12-26T20:27:55.620Z,102309.58
2018-12-26T20:30:25.401Z,102316.06
2018-12-26T20:32:55.207Z,102309.61
2018-12-26T20:35:24.929Z,102303.56
2018-12-26T20:37:54.771Z,102305.36
2018-12-26T20:40:24.490Z,102313.17
2018-12-26T20:42:54.170Z,102313.63
2018-12-26T20:45:23.882Z,102305.89
2018-12-26T20:47:53.561Z,102310.08
2018-12-26T20:50:23.369Z,102307.97
2018-12-26T20:52:53.159Z,102315.85
2018-12-26T20:55:22.836Z,102317.61
2018-12-26T20:57:52.545Z,102312.44
2018-12-26T21:00:22.310Z,102316.97
2018-12-26T21:02:51.986Z,102306.80
2018-12-26T21:05:21.713Z,102312.05
2018-12-26T21:07:51.719Z,102307.22
2018-12-26T21:10:21.605Z,102314.23
2018-12-26T21:12:51.292Z,102305.64
2018-12-26T21:15:22.820Z,102310.39
2018-12-26T21:17:52.704Z,102317.61
2018-12-26T21:20:22.464Z,102320.86
2018-12-26T21:22:52.188Z,102312.51
2018-12-26T21:25:21.989Z,102313.56
2018-12-26T21:27:53.398Z,102313.52
2018-12-26T21:30:23.136Z,102317.22
2018-12-26T21:32:52.907Z,102316.95
2018-12-26T21:35:22.905Z,102316.84
2018-12-26T21:37:52.676Z,102318.59
2018-12-26T21:40:22.492Z,102317.60
2018-12-26T21:42:52.297Z,102314.83
2018-12-26T21:45:24.629Z,102313.49
2018-12-26T21:47:53.498Z,102312.65
2018-12-26T21:50:23.286Z,102308.45
2018-12-26T21:52:53.018Z,102307.33
2018-12-26T21:55:23.113Z,102301.25
2018-12-26T21:57:54.991Z,102296.98
2018-12-26T22:00:24.796Z,102307.19
2018-12-26T22:02:54.491Z,102298.39
2018-12-26T22:05:24.167Z,102302.27
2018-12-26T22:07:53.863Z,102301.06
2018-12-26T22:10:23.628Z,102301.27
2018-12-26T22:12:53.360Z,102298.36
2018-12-26T22:15:23.235Z,102291.21
2018-12-26T22:17:52.974Z,102290.69
2018-12-26T22:20:22.746Z,102283.67
2018-12-26T22:22:52.461Z,102286.64
2018-12-26T22:25:22.174Z,102290.72
2018-12-26T22:27:51.856Z,102286.64
2018-12-26T22:30:21.655Z,102293.33
2018-12-26T22:32:51.478Z,102289.80
2018-12-26T22:35:21.149Z,102289.88
2018-12-26T22:37:50.932Z,102285.72
2018-12-26T22:40:20.823Z,102281.32
2018-12-26T22:42:50.609Z,102288.57
2018-12-26T22:45:20.377Z,102289.13
2018-12-26T22:47:50.421Z,102286.67
2018-12-26T22:50:20.562Z,102291.14
2018-12-26T22:52:50.322Z,102289.06
2018-12-26T22:55:20.209Z,102292.48
2018-12-26T22:57:49.960Z,102295.86
2018-12-26T23:00:33.359Z,102294.45
2018-12-26T23:03:04.838Z,102297.38
2018-12-26T23:05:34.691Z,102299.80
2018-12-26T23:08:04.643Z,102293.78
2018-12-26T23:10:34.477Z,102292.97
2018-12-26T23:13:04.344Z,102285.90
2018-12-26T23:15:34.206Z,102288.89
2018-12-26T23:18:04.164Z,102280.13
2018-12-26T23:20:33.918Z,102275.27
2018-12-26T23:23:08.756Z,102270.34
2018-12-26T23:25:45.918Z,102268.58
2018-12-26T23:28:16.902Z,102268.13
2018-12-26T23:30:47.618Z,102267.53
2018-12-26T23:33:20.703Z,102270.66
2018-12-26T23:35:53.661Z,102258.09
2018-12-26T23:38:23.495Z,102258.84
2018-12-26T23:40:53.283Z,102258.31
2018-12-26T23:43:23.058Z,102265.73
2018-12-26T23:45:52.763Z,102258.97
2018-12-26T23:48:22.618Z,102251.62
2018-12-26T23:50:52.797Z,102251.38
2018-12-26T23:53:22.557Z,102245.15
2018-12-26T23:55:52.335Z,102250.74
2018-12-26T23:58:22.184Z,102251.63
